createdAt,value
2023-01-07T00:03:33.744Z,536.30769
2023-01-07T00:08:35.400Z,525.13208
2023-01-07T00:13:37.117Z,494
2023-01-07T00:18:38.714Z,494
2023-01-07T00:23:40.412Z,489.13274
2023-01-07T00:28:42.062Z,504
2023-01-07T00:33:43.708Z,566.22222
2023-01-07T00:38:45.299Z,572.57143
2023-01-07T00:43:46.922Z,498.95495
2023-01-07T00:48:48.542Z,470.49573
2023-01-07T00:53:50.226Z,470.49573
2023-01-07T00:58:51.873Z,498.95495
2023-01-07T01:03:53.451Z,504
2023-01-07T01:08:55.165Z,530.66667
2023-01-07T01:13:56.722Z,530.66667
2023-01-07T01:18:58.344Z,509.13761
2023-01-07T01:23:59.936Z,509.13761
2023-01-07T01:29:01.614Z,519.70093
2023-01-07T01:34:03.265Z,560
2023-01-07T01:39:04.929Z,606.36559
2023-01-07T01:44:06.552Z,677.33333
2023-01-07T01:49:08.399Z,686.16867
2023-01-07T01:54:10.011Z,686.16867
2023-01-07T01:59:11.648Z,668.70588
2023-01-07T02:04:13.289Z,652.04598
2023-01-07T02:09:14.910Z,636.13483
2023-01-07T02:14:16.525Z,599.31915
2023-01-07T02:19:18.216Z,592.42105
2023-01-07T02:24:19.878Z,628.44444
2023-01-07T02:29:21.499Z,628.44444
2023-01-07T02:34:23.128Z,613.56522
2023-01-07T02:39:24.791Z,585.66667
2023-01-07T02:44:26.439Z,553.90099
2023-01-07T02:49:28.101Z,509.13761
2023-01-07T02:54:29.763Z,530.66667
2023-01-07T02:59:31.355Z,536.30769
2023-01-07T03:04:32.952Z,542.05825
2023-01-07T03:09:34.563Z,547.92157
2023-01-07T03:14:36.163Z,560
2023-01-07T03:19:37.779Z,620.92308
2023-01-07T03:24:39.405Z,572.57143
2023-01-07T03:29:41.047Z,566.22222
2023-01-07T03:34:42.679Z,579.05155
2023-01-07T03:39:44.301Z,585.66667
2023-01-07T03:44:45.923Z,566.22222
2023-01-07T03:49:47.536Z,553.90099
2023-01-07T03:54:49.139Z,536.30769
2023-01-07T03:59:50.793Z,530.66667
2023-01-07T04:04:52.469Z,560
2023-01-07T04:09:54.341Z,572.57143
2023-01-07T04:14:57.859Z,566.22222
2023-01-07T04:20:00.915Z,560
2023-01-07T04:25:02.456Z,560
2023-01-07T04:30:04.177Z,547.92157
2023-01-07T04:35:05.916Z,547.92157
2023-01-07T04:40:07.543Z,560
2023-01-07T04:45:09.149Z,553.90099
2023-01-07T04:50:10.918Z,560
2023-01-07T04:55:12.513Z,579.05155
2023-01-07T05:00:14.388Z,579.05155
2023-01-07T05:05:16.054Z,579.05155
2023-01-07T05:10:17.656Z,566.22222
2023-01-07T05:15:19.257Z,547.92157
2023-01-07T05:20:20.955Z,542.05825
2023-01-07T05:25:22.771Z,579.05155
2023-01-07T05:30:24.413Z,585.66667
2023-01-07T05:35:26.042Z,585.66667
2023-01-07T05:40:27.645Z,585.66667
2023-01-07T05:45:29.328Z,606.36559
2023-01-07T05:50:30.965Z,599.31915
2023-01-07T05:55:32.632Z,585.66667
2023-01-07T06:00:34.306Z,599.31915
2023-01-07T06:05:35.900Z,599.31915
2023-01-07T06:10:37.579Z,606.36559
2023-01-07T06:15:39.416Z,579.05155
2023-01-07T06:20:41.173Z,560
2023-01-07T06:25:42.747Z,572.57143
2023-01-07T06:30:44.520Z,579.05155
2023-01-07T06:35:46.127Z,592.42105
2023-01-07T06:40:47.715Z,613.56522
2023-01-07T06:45:49.380Z,606.36559
2023-01-07T06:50:51.026Z,592.42105
2023-01-07T06:55:52.665Z,585.66667
2023-01-07T07:00:54.333Z,585.66667
2023-01-07T07:05:56.011Z,599.31915
2023-01-07T07:10:57.672Z,592.42105
2023-01-07T07:15:59.401Z,599.31915
2023-01-07T07:21:01.193Z,613.56522
2023-01-07T07:26:02.831Z,628.44444
2023-01-07T07:31:04.518Z,620.92308
2023-01-07T07:36:06.416Z,620.92308
2023-01-07T07:41:08.075Z,620.92308
2023-01-07T07:46:09.733Z,628.44444
2023-01-07T07:51:11.634Z,628.44444
2023-01-07T07:56:13.243Z,620.92308
2023-01-07T08:01:14.892Z,620.92308
2023-01-07T08:06:16.588Z,592.42105
2023-01-07T08:11:18.243Z,585.66667
2023-01-07T08:16:20.002Z,599.31915
2023-01-07T08:21:21.614Z,579.05155
2023-01-07T08:26:23.198Z,572.57143
2023-01-07T08:31:24.941Z,613.56522
2023-01-07T08:36:26.607Z,599.31915
2023-01-07T08:41:28.270Z,644
2023-01-07T08:46:29.949Z,652.04598
2023-01-07T08:51:31.588Z,652.04598
2023-01-07T08:56:33.257Z,644
2023-01-07T09:01:35.056Z,636.13483
2023-01-07T09:06:36.819Z,628.44444
2023-01-07T09:11:38.498Z,644
2023-01-07T09:16:40.165Z,652.04598
2023-01-07T09:21:41.867Z,668.70588
2023-01-07T09:26:43.483Z,668.70588
2023-01-07T09:31:45.118Z,677.33333
2023-01-07T09:36:46.857Z,660.27907
2023-01-07T09:41:48.512Z,652.04598
2023-01-07T09:46:50.087Z,677.33333
2023-01-07T09:51:51.696Z,714
2023-01-07T09:56:53.349Z,714
2023-01-07T10:01:54.956Z,714
2023-01-07T10:06:56.578Z,686.16867
2023-01-07T10:11:58.193Z,677.33333
2023-01-07T10:16:59.983Z,677.33333
2023-01-07T10:22:01.630Z,695.21951
2023-01-07T10:27:03.305Z,704.49383
2023-01-07T10:32:04.951Z,714
2023-01-07T10:37:06.817Z,695.21951
2023-01-07T10:42:08.512Z,723.74684
2023-01-07T10:47:10.099Z,723.74684
2023-01-07T10:52:11.827Z,733.74359
2023-01-07T10:57:13.423Z,744
2023-01-07T11:02:15.282Z,704.49383
2023-01-07T11:07:17.074Z,723.74684
2023-01-07T11:12:18.750Z,714
2023-01-07T11:17:20.337Z,714
2023-01-07T11:22:22.051Z,714
2023-01-07T11:27:23.641Z,723.74684
2023-01-07T11:32:25.224Z,704.49383
2023-01-07T11:37:27.034Z,686.16867
2023-01-07T11:42:28.620Z,686.16867
2023-01-07T11:47:30.241Z,744
2023-01-07T11:52:31.936Z,723.74684
2023-01-07T11:57:33.583Z,723.74684
2023-01-07T12:02:35.317Z,744
2023-01-07T12:07:36.964Z,765.33333
2023-01-07T12:12:38.626Z,754.52632
2023-01-07T12:17:40.270Z,776.43243
2023-01-07T12:22:41.903Z,776.43243
2023-01-07T12:27:43.615Z,787.83562
2023-01-07T12:32:45.209Z,787.83562
2023-01-07T12:37:46.806Z,765.33333
2023-01-07T12:42:48.476Z,677.33333
2023-01-07T12:47:50.302Z,677.33333
2023-01-07T12:52:51.902Z,704.49383
2023-01-07T12:57:53.520Z,677.33333
2023-01-07T13:02:55.181Z,686.16867
2023-01-07T13:07:56.789Z,677.33333
2023-01-07T13:12:58.418Z,677.33333
2023-01-07T13:18:00.111Z,714
2023-01-07T13:23:01.720Z,754.52632
2023-01-07T13:28:03.299Z,714
2023-01-07T13:33:05.066Z,723.74684
2023-01-07T13:38:06.697Z,776.43243
2023-01-07T13:43:08.339Z,776.43243
2023-01-07T13:48:09.964Z,754.52632
2023-01-07T13:53:11.735Z,776.43243
2023-01-07T13:58:13.395Z,765.33333
2023-01-07T14:03:15.271Z,754.52632
2023-01-07T14:08:16.982Z,765.33333
2023-01-07T14:13:18.648Z,744
2023-01-07T14:18:20.355Z,733.74359
2023-01-07T14:23:21.970Z,723.74684
2023-01-07T14:28:23.602Z,686.16867
2023-01-07T14:33:25.247Z,686.16867
2023-01-07T14:38:26.936Z,644
2023-01-07T14:43:28.655Z,628.44444
2023-01-07T14:48:30.251Z,628.44444
2023-01-07T14:53:31.871Z,652.04598
2023-01-07T14:58:33.520Z,660.27907
2023-01-07T15:03:35.161Z,660.27907
2023-01-07T15:08:36.862Z,652.04598
2023-01-07T15:13:38.530Z,652.04598
2023-01-07T15:18:40.135Z,652.04598
2023-01-07T15:23:41.763Z,636.13483
2023-01-07T15:28:43.408Z,660.27907
2023-01-07T15:33:45.312Z,668.70588
2023-01-07T15:38:48.969Z,695.21951
2023-01-07T15:43:52.259Z,686.16867
2023-01-07T15:48:53.923Z,704.49383
2023-01-07T15:53:55.618Z,733.74359
2023-01-07T15:58:57.198Z,714
2023-01-07T16:03:58.824Z,695.21951
2023-01-07T16:09:00.423Z,668.70588
2023-01-07T16:14:02.086Z,668.70588
2023-01-07T16:19:03.740Z,668.70588
2023-01-07T16:24:05.308Z,686.16867
2023-01-07T16:29:06.922Z,677.33333
2023-01-07T16:34:08.510Z,644
2023-01-07T16:39:10.094Z,636.13483
2023-01-07T16:44:11.863Z,644
2023-01-07T16:49:13.695Z,652.04598
2023-01-07T16:54:16.216Z,677.33333
2023-01-07T16:59:19.407Z,668.70588
2023-01-07T17:04:21.001Z,660.27907
2023-01-07T17:09:22.635Z,668.70588
2023-01-07T17:14:24.352Z,668.70588
2023-01-07T17:19:25.986Z,677.33333
2023-01-07T17:24:27.695Z,660.27907
2023-01-07T17:29:29.342Z,636.13483
2023-01-07T17:34:30.924Z,652.04598
2023-01-07T17:39:32.557Z,652.04598
2023-01-07T17:44:34.260Z,644
2023-01-07T17:49:35.884Z,644
2023-01-07T17:54:37.526Z,668.70588
2023-01-07T17:59:39.106Z,660.27907
2023-01-07T18:04:40.716Z,613.56522
2023-01-07T18:09:42.356Z,592.42105
2023-01-07T18:14:44.009Z,668.70588
2023-01-07T18:19:45.693Z,695.21951
2023-01-07T18:24:47.327Z,704.49383
2023-01-07T18:29:48.995Z,744
2023-01-07T18:34:50.697Z,765.33333
2023-01-07T18:39:52.305Z,744
2023-01-07T18:44:53.935Z,704.49383
2023-01-07T18:49:55.880Z,686.16867
2023-01-07T18:54:57.566Z,677.33333
2023-01-07T18:59:59.183Z,644
2023-01-07T19:05:00.826Z,644
2023-01-07T19:10:02.452Z,606.36559
2023-01-07T19:15:04.066Z,606.36559
2023-01-07T19:20:05.688Z,579.05155
2023-01-07T19:25:07.343Z,572.57143
2023-01-07T19:30:09.013Z,599.31915
2023-01-07T19:35:10.636Z,787.83562
2023-01-07T19:40:12.254Z,849.88235
2023-01-07T19:45:13.912Z,776.43243
2023-01-07T19:50:15.588Z,811.60563
2023-01-07T19:55:17.228Z,744
2023-01-07T20:00:18.842Z,723.74684
2023-01-07T20:05:20.422Z,652.04598
2023-01-07T20:10:22.041Z,652.04598
2023-01-07T20:15:23.635Z,668.70588
2023-01-07T20:20:25.228Z,733.74359
2023-01-07T20:25:26.806Z,754.52632
2023-01-07T20:30:28.496Z,776.43243
2023-01-07T20:35:30.234Z,733.74359
2023-01-07T20:40:31.867Z,765.33333
2023-01-07T20:45:33.547Z,744
2023-01-07T20:50:35.179Z,744
2023-01-07T20:55:36.929Z,765.33333
2023-01-07T21:00:40.349Z,836.75362
2023-01-07T21:05:42.790Z,811.60563
2023-01-07T21:10:44.421Z,811.60563
2023-01-07T21:15:46.103Z,0
2023-01-07T21:20:47.737Z,0
2023-01-07T21:25:50.103Z,0
2023-01-07T21:30:51.736Z,0
2023-01-07T21:35:53.382Z,0
2023-01-07T21:40:55.060Z,0
2023-01-07T21:45:56.774Z,0
2023-01-07T21:50:58.444Z,0
2023-01-07T21:56:00.137Z,754.52632
2023-01-07T22:01:01.985Z,811.60563
2023-01-07T22:06:03.978Z,0
2023-01-07T22:11:05.595Z,0
2023-01-07T22:16:07.283Z,0
2023-01-07T22:21:08.951Z,0
2023-01-07T22:26:10.621Z,0
2023-01-07T22:31:12.268Z,0
2023-01-07T22:36:13.896Z,0
2023-01-07T22:41:15.551Z,0
2023-01-07T22:46:17.194Z,824
2023-01-07T22:51:19.057Z,799.55556
2023-01-07T22:56:20.704Z,704.49383
2023-01-07T23:01:22.463Z,695.21951
2023-01-07T23:06:24.159Z,811.60563
2023-01-07T23:11:25.747Z,765.33333
2023-01-07T23:16:27.435Z,686.16867
2023-01-07T23:21:29.124Z,660.27907
2023-01-07T23:26:30.718Z,686.16867
2023-01-07T23:31:32.370Z,695.21951
2023-01-07T23:36:33.961Z,652.04598
2023-01-07T23:41:35.586Z,592.42105
2023-01-07T23:46:37.279Z,606.36559
2023-01-07T23:51:38.878Z,620.92308
2023-01-07T23:56:40.550Z,704.49383
